sensor_id;sensor_type;location;lat;lon;timestamp;P1;durP1;ratioP1;P2;durP2;ratioP2
1593;SDS011;790;47.000;16.084;2024-03-02T00:06:03;52.90;;;36.77;;
1593;SDS011;790;47.000;16.084;2024-03-02T00:12:25;49.63;;;36.07;;
1593;SDS011;790;47.000;16.084;2024-03-02T00:18:47;56.30;;;38.83;;
1593;SDS011;790;47.000;16.084;2024-03-02T00:29:55;54.07;;;38.90;;
1593;SDS011;790;47.000;16.084;2024-03-02T00:36:18;49.83;;;37.23;;
1593;SDS011;790;47.000;16.084;2024-03-02T00:42:45;47.30;;;36.97;;
1593;SDS011;790;47.000;16.084;2024-03-02T00:49:12;48.10;;;36.43;;
1593;SDS011;790;47.000;16.084;2024-03-02T00:55:40;46.97;;;36.37;;
1593;SDS011;790;47.000;16.084;2024-03-02T01:02:07;52.50;;;37.20;;
1593;SDS011;790;47.000;16.084;2024-03-02T01:08:31;57.60;;;39.10;;
1593;SDS011;790;47.000;16.084;2024-03-02T01:14:53;55.17;;;38.63;;
1593;SDS011;790;47.000;16.084;2024-03-02T01:21:15;51.50;;;38.63;;
1593;SDS011;790;47.000;16.084;2024-03-02T01:32:35;46.83;;;34.83;;
1593;SDS011;790;47.000;16.084;2024-03-02T01:38:59;46.57;;;34.73;;
1593;SDS011;790;47.000;16.084;2024-03-02T01:45:22;48.27;;;36.00;;
1593;SDS011;790;47.000;16.084;2024-03-02T01:51:46;46.33;;;34.03;;
1593;SDS011;790;47.000;16.084;2024-03-02T01:58:08;45.90;;;33.00;;
1593;SDS011;790;47.000;16.084;2024-03-02T02:04:30;47.00;;;34.37;;
1593;SDS011;790;47.000;16.084;2024-03-02T02:10:55;48.50;;;36.03;;
1593;SDS011;790;47.000;16.084;2024-03-02T02:17:17;52.60;;;36.27;;
1593;SDS011;790;47.000;16.084;2024-03-02T02:23:41;50.87;;;36.93;;
1593;SDS011;790;47.000;16.084;2024-03-02T02:35:01;53.97;;;35.10;;
1593;SDS011;790;47.000;16.084;2024-03-02T02:41:26;55.90;;;37.30;;
1593;SDS011;790;47.000;16.084;2024-03-02T02:47:48;52.20;;;35.60;;
1593;SDS011;790;47.000;16.084;2024-03-02T02:54:10;56.53;;;38.27;;
1593;SDS011;790;47.000;16.084;2024-03-02T03:00:34;54.73;;;35.63;;
1593;SDS011;790;47.000;16.084;2024-03-02T03:06:56;50.53;;;35.03;;
1593;SDS011;790;47.000;16.084;2024-03-02T03:13:18;53.90;;;36.70;;
1593;SDS011;790;47.000;16.084;2024-03-02T03:19:42;56.67;;;34.07;;
1593;SDS011;790;47.000;16.084;2024-03-02T03:26:05;65.50;;;37.47;;
1593;SDS011;790;47.000;16.084;2024-03-02T03:37:23;66.00;;;34.00;;
1593;SDS011;790;47.000;16.084;2024-03-02T03:43:51;68.93;;;36.23;;
1593;SDS011;790;47.000;16.084;2024-03-02T03:50:14;58.53;;;33.37;;
1593;SDS011;790;47.000;16.084;2024-03-02T03:56:38;57.93;;;33.00;;
1593;SDS011;790;47.000;16.084;2024-03-02T04:03:00;50.90;;;29.90;;
1593;SDS011;790;47.000;16.084;2024-03-02T04:09:22;64.03;;;33.60;;
1593;SDS011;790;47.000;16.084;2024-03-02T04:15:47;52.57;;;30.67;;
1593;SDS011;790;47.000;16.084;2024-03-02T04:22:09;55.93;;;32.73;;
1593;SDS011;790;47.000;16.084;2024-03-02T04:28:31;60.77;;;33.10;;
1593;SDS011;790;47.000;16.084;2024-03-02T04:39:29;65.17;;;33.57;;
1593;SDS011;790;47.000;16.084;2024-03-02T04:45:51;61.53;;;33.77;;
1593;SDS011;790;47.000;16.084;2024-03-02T04:52:13;58.97;;;30.97;;
1593;SDS011;790;47.000;16.084;2024-03-02T04:58:37;60.90;;;32.90;;
1593;SDS011;790;47.000;16.084;2024-03-02T05:04:59;57.60;;;33.00;;
1593;SDS011;790;47.000;16.084;2024-03-02T05:11:21;53.57;;;32.33;;
1593;SDS011;790;47.000;16.084;2024-03-02T05:18:02;56.07;;;31.30;;
1593;SDS011;790;47.000;16.084;2024-03-02T05:24:25;57.03;;;30.80;;
1593;SDS011;790;47.000;16.084;2024-03-02T05:30:48;56.27;;;29.87;;
1593;SDS011;790;47.000;16.084;2024-03-02T05:41:45;54.23;;;30.20;;
1593;SDS011;790;47.000;16.084;2024-03-02T05:48:07;57.73;;;30.17;;
1593;SDS011;790;47.000;16.084;2024-03-02T05:54:29;52.43;;;30.23;;
1593;SDS011;790;47.000;16.084;2024-03-02T06:00:53;51.07;;;30.57;;
1593;SDS011;790;47.000;16.084;2024-03-02T06:07:14;50.57;;;30.57;;
1593;SDS011;790;47.000;16.084;2024-03-02T06:13:36;50.57;;;30.13;;
1593;SDS011;790;47.000;16.084;2024-03-02T06:20:00;48.23;;;29.60;;
1593;SDS011;790;47.000;16.084;2024-03-02T06:26:22;51.67;;;28.93;;
1593;SDS011;790;47.000;16.084;2024-03-02T06:32:44;50.33;;;29.13;;
1593;SDS011;790;47.000;16.084;2024-03-02T06:43:33;52.50;;;32.40;;
1593;SDS011;790;47.000;16.084;2024-03-02T06:49:55;50.97;;;29.77;;
1593;SDS011;790;47.000;16.084;2024-03-02T06:56:18;48.80;;;29.47;;
1593;SDS011;790;47.000;16.084;2024-03-02T07:02:42;49.80;;;29.40;;
1593;SDS011;790;47.000;16.084;2024-03-02T07:09:04;51.57;;;29.67;;
1593;SDS011;790;47.000;16.084;2024-03-02T07:15:30;47.00;;;29.07;;
1593;SDS011;790;47.000;16.084;2024-03-02T07:22:15;47.80;;;29.93;;
1593;SDS011;790;47.000;16.084;2024-03-02T07:28:37;45.20;;;28.67;;
1593;SDS011;790;47.000;16.084;2024-03-02T07:35:00;41.73;;;27.17;;
1593;SDS011;790;47.000;16.084;2024-03-02T07:46:09;47.33;;;28.43;;
1593;SDS011;790;47.000;16.084;2024-03-02T07:52:31;43.97;;;28.00;;
1593;SDS011;790;47.000;16.084;2024-03-02T07:58:53;43.30;;;27.27;;
1593;SDS011;790;47.000;16.084;2024-03-02T08:05:18;45.77;;;27.97;;
1593;SDS011;790;47.000;16.084;2024-03-02T08:11:40;44.53;;;29.10;;
1593;SDS011;790;47.000;16.084;2024-03-02T08:18:03;49.07;;;30.57;;
1593;SDS011;790;47.000;16.084;2024-03-02T08:24:27;50.60;;;35.27;;
1593;SDS011;790;47.000;16.084;2024-03-02T08:30:49;38.30;;;25.43;;
1593;SDS011;790;47.000;16.084;2024-03-02T08:37:12;36.67;;;25.03;;
1593;SDS011;790;47.000;16.084;2024-03-02T08:48:20;38.77;;;26.43;;
1593;SDS011;790;47.000;16.084;2024-03-02T08:54:43;38.90;;;25.27;;
1593;SDS011;790;47.000;16.084;2024-03-02T09:01:05;39.17;;;23.87;;
1593;SDS011;790;47.000;16.084;2024-03-02T09:07:30;37.77;;;26.50;;
1593;SDS011;790;47.000;16.084;2024-03-02T09:13:52;36.07;;;24.63;;
1593;SDS011;790;47.000;16.084;2024-03-02T09:20:17;34.53;;;23.03;;
1593;SDS011;790;47.000;16.084;2024-03-02T09:26:41;35.60;;;27.57;;
1593;SDS011;790;47.000;16.084;2024-03-02T09:33:04;31.33;;;23.63;;
1593;SDS011;790;47.000;16.084;2024-03-02T09:39:26;32.93;;;22.87;;
1593;SDS011;790;47.000;16.084;2024-03-02T09:50:34;30.47;;;22.27;;
1593;SDS011;790;47.000;16.084;2024-03-02T09:56:57;31.43;;;22.60;;
1593;SDS011;790;47.000;16.084;2024-03-02T10:03:20;31.57;;;22.10;;
1593;SDS011;790;47.000;16.084;2024-03-02T10:09:46;33.77;;;22.57;;
1593;SDS011;790;47.000;16.084;2024-03-02T10:16:11;57.03;;;36.23;;
1593;SDS011;790;47.000;16.084;2024-03-02T10:22:34;41.53;;;29.00;;
1593;SDS011;790;47.000;16.084;2024-03-02T10:28:58;33.63;;;24.93;;
1593;SDS011;790;47.000;16.084;2024-03-02T10:35:21;31.17;;;23.83;;
1593;SDS011;790;47.000;16.084;2024-03-02T10:41:45;28.50;;;20.17;;
1593;SDS011;790;47.000;16.084;2024-03-02T10:53:06;30.67;;;22.63;;
1593;SDS011;790;47.000;16.084;2024-03-02T10:59:33;25.33;;;19.73;;
1593;SDS011;790;47.000;16.084;2024-03-02T11:06:00;25.90;;;18.97;;
1593;SDS011;790;47.000;16.084;2024-03-02T11:12:28;34.83;;;20.27;;
1593;SDS011;790;47.000;16.084;2024-03-02T11:18:53;25.23;;;19.00;;
1593;SDS011;790;47.000;16.084;2024-03-02T11:25:24;26.23;;;18.23;;
1593;SDS011;790;47.000;16.084;2024-03-02T11:32:01;27.10;;;19.37;;
1593;SDS011;790;47.000;16.084;2024-03-02T11:38:27;23.87;;;17.87;;
1593;SDS011;790;47.000;16.084;2024-03-02T11:44:55;21.00;;;15.80;;
1593;SDS011;790;47.000;16.084;2024-03-02T11:56:16;20.70;;;14.93;;
1593;SDS011;790;47.000;16.084;2024-03-02T12:02:40;21.33;;;17.13;;
1593;SDS011;790;47.000;16.084;2024-03-02T12:09:08;21.10;;;15.57;;
1593;SDS011;790;47.000;16.084;2024-03-02T12:15:38;18.33;;;14.60;;
1593;SDS011;790;47.000;16.084;2024-03-02T12:22:01;19.07;;;14.33;;
1593;SDS011;790;47.000;16.084;2024-03-02T12:28:24;16.77;;;12.27;;
1593;SDS011;790;47.000;16.084;2024-03-02T12:34:48;19.87;;;13.10;;
1593;SDS011;790;47.000;16.084;2024-03-02T12:41:14;16.30;;;12.53;;
1593;SDS011;790;47.000;16.084;2024-03-02T12:47:36;16.03;;;11.97;;
1593;SDS011;790;47.000;16.084;2024-03-02T12:58:55;16.93;;;12.20;;
1593;SDS011;790;47.000;16.084;2024-03-02T13:05:18;11.63;;;9.20;;
1593;SDS011;790;47.000;16.084;2024-03-02T13:11:39;15.07;;;9.47;;
1593;SDS011;790;47.000;16.084;2024-03-02T13:18:05;14.67;;;10.10;;
1593;SDS011;790;47.000;16.084;2024-03-02T13:24:29;12.03;;;9.47;;
1593;SDS011;790;47.000;16.084;2024-03-02T13:30:51;11.93;;;9.77;;
1593;SDS011;790;47.000;16.084;2024-03-02T13:37:14;11.40;;;9.87;;
1593;SDS011;790;47.000;16.084;2024-03-02T13:43:36;13.60;;;9.03;;
1593;SDS011;790;47.000;16.084;2024-03-02T13:49:59;9.37;;;8.37;;
1593;SDS011;790;47.000;16.084;2024-03-02T14:01:17;9.93;;;6.93;;
1593;SDS011;790;47.000;16.084;2024-03-02T14:07:40;9.13;;;7.67;;
1593;SDS011;790;47.000;16.084;2024-03-02T14:14:12;8.80;;;7.50;;
1593;SDS011;790;47.000;16.084;2024-03-02T14:20:35;10.07;;;9.03;;
1593;SDS011;790;47.000;16.084;2024-03-02T14:26:58;11.77;;;9.73;;
1593;SDS011;790;47.000;16.084;2024-03-02T14:33:23;12.53;;;10.40;;
1593;SDS011;790;47.000;16.084;2024-03-02T14:39:46;12.50;;;10.37;;
1593;SDS011;790;47.000;16.084;2024-03-02T14:46:19;15.13;;;11.63;;
1593;SDS011;790;47.000;16.084;2024-03-02T14:52:41;15.30;;;12.83;;
1593;SDS011;790;47.000;16.084;2024-03-02T15:03:59;14.30;;;12.60;;
1593;SDS011;790;47.000;16.084;2024-03-02T15:10:22;18.73;;;16.27;;
1593;SDS011;790;47.000;16.084;2024-03-02T15:16:54;23.03;;;16.10;;
1593;SDS011;790;47.000;16.084;2024-03-02T15:23:18;18.10;;;15.30;;
1593;SDS011;790;47.000;16.084;2024-03-02T15:29:40;17.87;;;15.17;;
1593;SDS011;790;47.000;16.084;2024-03-02T15:36:03;21.50;;;16.73;;
1593;SDS011;790;47.000;16.084;2024-03-02T15:42:27;20.73;;;15.87;;
1593;SDS011;790;47.000;16.084;2024-03-02T15:48:50;20.50;;;15.63;;
1593;SDS011;790;47.000;16.084;2024-03-02T15:55:12;22.23;;;17.40;;
1593;SDS011;790;47.000;16.084;2024-03-02T16:06:09;22.77;;;18.30;;
1593;SDS011;790;47.000;16.084;2024-03-02T16:12:32;22.50;;;19.07;;
1593;SDS011;790;47.000;16.084;2024-03-02T16:18:54;20.90;;;18.17;;
1593;SDS011;790;47.000;16.084;2024-03-02T16:25:17;21.60;;;17.40;;
1593;SDS011;790;47.000;16.084;2024-03-02T16:31:40;28.27;;;20.10;;
1593;SDS011;790;47.000;16.084;2024-03-02T16:38:02;23.03;;;19.20;;
1593;SDS011;790;47.000;16.084;2024-03-02T16:44:25;25.63;;;19.83;;
1593;SDS011;790;47.000;16.084;2024-03-02T16:50:48;24.00;;;19.57;;
1593;SDS011;790;47.000;16.084;2024-03-02T16:57:10;24.60;;;19.37;;
1593;SDS011;790;47.000;16.084;2024-03-02T17:07:58;19.27;;;16.10;;
1593;SDS011;790;47.000;16.084;2024-03-02T17:14:20;25.80;;;17.77;;
1593;SDS011;790;47.000;16.084;2024-03-02T17:20:42;21.37;;;16.50;;
1593;SDS011;790;47.000;16.084;2024-03-02T17:27:06;21.07;;;15.60;;
1593;SDS011;790;47.000;16.084;2024-03-02T17:33:30;23.73;;;16.57;;
1593;SDS011;790;47.000;16.084;2024-03-02T17:39:52;21.93;;;17.20;;
1593;SDS011;790;47.000;16.084;2024-03-02T17:46:17;22.50;;;16.40;;
1593;SDS011;790;47.000;16.084;2024-03-02T17:52:40;20.87;;;16.33;;
1593;SDS011;790;47.000;16.084;2024-03-02T17:59:02;24.13;;;16.73;;
1593;SDS011;790;47.000;16.084;2024-03-02T18:09:49;23.37;;;17.47;;
1593;SDS011;790;47.000;16.084;2024-03-02T18:16:12;22.13;;;17.60;;
1593;SDS011;790;47.000;16.084;2024-03-02T18:22:35;24.83;;;18.17;;
1593;SDS011;790;47.000;16.084;2024-03-02T18:28:58;25.53;;;17.40;;
1593;SDS011;790;47.000;16.084;2024-03-02T18:35:21;26.03;;;18.83;;
1593;SDS011;790;47.000;16.084;2024-03-02T18:41:43;29.10;;;19.27;;
1593;SDS011;790;47.000;16.084;2024-03-02T18:48:07;26.37;;;18.67;;
1593;SDS011;790;47.000;16.084;2024-03-02T18:54:29;26.13;;;18.87;;
1593;SDS011;790;47.000;16.084;2024-03-02T19:00:51;23.33;;;17.60;;
1593;SDS011;790;47.000;16.084;2024-03-02T19:11:38;27.17;;;20.13;;
1593;SDS011;790;47.000;16.084;2024-03-02T19:18:01;27.47;;;20.23;;
1593;SDS011;790;47.000;16.084;2024-03-02T19:24:23;28.00;;;19.03;;
1593;SDS011;790;47.000;16.084;2024-03-02T19:30:48;31.67;;;20.80;;
1593;SDS011;790;47.000;16.084;2024-03-02T19:37:11;30.83;;;21.03;;
1593;SDS011;790;47.000;16.084;2024-03-02T19:43:34;29.70;;;22.10;;
1593;SDS011;790;47.000;16.084;2024-03-02T19:49:58;26.20;;;20.33;;
1593;SDS011;790;47.000;16.084;2024-03-02T19:56:24;28.93;;;20.97;;
1593;SDS011;790;47.000;16.084;2024-03-02T20:02:48;27.60;;;19.77;;
1593;SDS011;790;47.000;16.084;2024-03-02T20:13:36;33.13;;;21.97;;
1593;SDS011;790;47.000;16.084;2024-03-02T20:19:59;25.67;;;19.73;;
1593;SDS011;790;47.000;16.084;2024-03-02T20:26:21;29.30;;;21.33;;
1593;SDS011;790;47.000;16.084;2024-03-02T20:32:44;34.73;;;24.27;;
1593;SDS011;790;47.000;16.084;2024-03-02T20:39:06;37.83;;;24.67;;
1593;SDS011;790;47.000;16.084;2024-03-02T20:45:28;32.87;;;22.20;;
1593;SDS011;790;47.000;16.084;2024-03-02T20:51:52;30.80;;;23.90;;
1593;SDS011;790;47.000;16.084;2024-03-02T20:58:15;32.80;;;23.50;;
1593;SDS011;790;47.000;16.084;2024-03-02T21:04:37;30.73;;;22.27;;
1593;SDS011;790;47.000;16.084;2024-03-02T21:15:26;33.90;;;23.33;;
1593;SDS011;790;47.000;16.084;2024-03-02T21:21:49;28.53;;;21.27;;
1593;SDS011;790;47.000;16.084;2024-03-02T21:28:12;26.63;;;20.93;;
1593;SDS011;790;47.000;16.084;2024-03-02T21:34:35;30.87;;;21.03;;
1593;SDS011;790;47.000;16.084;2024-03-02T21:40:58;27.70;;;19.80;;
1593;SDS011;790;47.000;16.084;2024-03-02T21:47:20;28.93;;;20.20;;
1593;SDS011;790;47.000;16.084;2024-03-02T21:53:44;26.57;;;20.53;;
1593;SDS011;790;47.000;16.084;2024-03-02T22:00:07;25.00;;;18.93;;
1593;SDS011;790;47.000;16.084;2024-03-02T22:06:30;27.63;;;19.73;;
1593;SDS011;790;47.000;16.084;2024-03-02T22:17:18;26.60;;;19.97;;
1593;SDS011;790;47.000;16.084;2024-03-02T22:23:42;28.33;;;20.13;;
1593;SDS011;790;47.000;16.084;2024-03-02T22:30:04;25.63;;;20.20;;
1593;SDS011;790;47.000;16.084;2024-03-02T22:36:28;28.53;;;20.50;;
1593;SDS011;790;47.000;16.084;2024-03-02T22:42:50;28.07;;;20.20;;
1593;SDS011;790;47.000;16.084;2024-03-02T22:49:13;31.30;;;21.53;;
1593;SDS011;790;47.000;16.084;2024-03-02T22:55:37;27.23;;;20.60;;
1593;SDS011;790;47.000;16.084;2024-03-02T23:01:59;26.17;;;19.60;;
1593;SDS011;790;47.000;16.084;2024-03-02T23:08:22;25.77;;;19.50;;
1593;SDS011;790;47.000;16.084;2024-03-02T23:19:09;25.87;;;17.40;;
1593;SDS011;790;47.000;16.084;2024-03-02T23:26:02;24.33;;;17.30;;
1593;SDS011;790;47.000;16.084;2024-03-02T23:32:25;20.20;;;15.83;;
1593;SDS011;790;47.000;16.084;2024-03-02T23:38:50;22.77;;;15.37;;
1593;SDS011;790;47.000;16.084;2024-03-02T23:45:13;20.00;;;14.63;;
1593;SDS011;790;47.000;16.084;2024-03-02T23:51:35;19.47;;;13.37;;
1593;SDS011;790;47.000;16.084;2024-03-02T23:57:58;17.27;;;13.57;;
